Time;durP1;ratioP1;P1;durP2;ratioP2;P2;SDS_P1;SDS_P2;PMS_P1;PMS_P2;Temp;Humidity;BMP_temperature;BMP_pressure;BME280_temperature;BME280_humidity;BME280_pressure;Samples;Min_cycle;Max_cycle;Signal;HPM_P1;HPM_P2
2024/04/12 05:43:21;;;;;;;7.10;5.38;;;;;;;;;;10544176;28;20442;-78
2024/04/12 05:48:22;;;;;;;5.03;3.15;;;;;;;;;;10540422;28;20032;-78
2024/04/12 05:53:30;;;;;;;5.90;5.03;;;;;;;;;;10543458;28;20025;-79
2024/04/12 05:58:31;;;;;;;3.13;2.58;;;;;;;;;;10542995;28;20499;-78
2024/04/12 06:03:32;;;;;;;6.03;4.32;;;;;;;;;;10544385;28;20067;-79
2024/04/12 06:08:35;;;;;;;5.22;3.53;;;;;;;;;;10542951;28;20048;-79
2024/04/12 06:13:38;;;;;;;6.65;4.70;;;;;;;;;;10540574;28;20032;-78
2024/04/12 06:18:39;;;;;;;6.25;3.70;;;;;;;;;;10545382;28;20436;-78
2024/04/12 06:23:40;;;;;;;4.63;3.78;;;;;;;;;;10542945;28;20472;-77
2024/04/12 06:28:44;;;;;;;6.90;5.22;;;;;;;;;;10544714;28;20038;-78
2024/04/12 06:33:45;;;;;;;5.07;3.22;;;;;;;;;;10542068;28;20020;-78
2024/04/12 06:38:46;;;;;;;4.30;3.17;;;;;;;;;;10562780;28;20090;-79
2024/04/12 06:43:49;;;;;;;5.70;5.07;;;;;;;;;;10540678;28;20036;-80
2024/04/12 06:48:50;;;;;;;6.97;4.25;;;;;;;;;;10537253;28;20496;-80
2024/04/12 06:53:54;;;;;;;3.97;3.25;;;;;;;;;;10510850;28;20068;-80
2024/04/12 06:58:55;;;;;;;5.60;4.85;;;;;;;;;;10510098;28;20032;-80
2024/04/12 07:04:05;;;;;;;3.72;2.05;;;;;;;;;;10512397;28;20485;-81
2024/04/12 07:09:08;;;;;;;3.03;2.40;;;;;;;;;;10514221;28;20055;-80
2024/04/12 07:14:09;;;;;;;3.47;3.00;;;;;;;;;;10515822;28;20458;-81
2024/04/12 07:19:13;;;;;;;4.32;3.20;;;;;;;;;;10513126;28;20028;-78
2024/04/12 07:24:15;;;;;;;5.63;4.55;;;;;;;;;;10511075;28;20047;-77
2024/04/12 07:29:21;;;;;;;5.93;5.32;;;;;;;;;;10508032;28;20020;-77
2024/04/12 07:39:35;;;;;;;6.90;4.90;;;;;;;;;;10482892;28;20044;-83
2024/04/12 07:44:39;;;;;;;6.15;5.38;;;;;;;;;;10475087;28;20061;-84
2024/04/12 07:49:48;;;;;;;5.00;3.85;;;;;;;;;;10462011;28;20045;-84
2024/04/12 07:54:53;;;;;;;8.23;6.22;;;;;;;;;;10462663;28;20033;-84
2024/04/12 07:59:59;;;;;;;5.72;5.13;;;;;;;;;;10487396;28;20032;-84
2024/04/12 08:05:28;;;;;;;6.20;5.28;;;;;;;;;;10479176;28;20025;-83
2024/04/12 08:10:41;;;;;;;9.15;7.88;;;;;;;;;;10452213;28;20492;-82
2024/04/12 08:16:09;;;;;;;10.98;9.65;;;;;;;;;;10471953;28;20028;-83
2024/04/12 08:21:12;;;;;;;10.75;8.48;;;;;;;;;;10453054;28;20064;-82
2024/04/12 08:26:16;;;;;;;8.10;6.38;;;;;;;;;;10454107;28;20044;-81
2024/04/12 08:31:18;;;;;;;7.93;6.15;;;;;;;;;;10459927;28;20032;-84
2024/04/12 08:36:19;;;;;;;7.30;6.20;;;;;;;;;;10456341;28;20028;-80
2024/04/12 08:41:25;;;;;;;7.07;4.88;;;;;;;;;;10486142;28;20059;-84
2024/04/12 08:46:33;;;;;;;10.23;7.25;;;;;;;;;;10466106;28;20056;-82
2024/04/12 08:51:36;;;;;;;7.85;6.68;;;;;;;;;;10490460;28;20045;-82
2024/04/12 08:56:39;;;;;;;10.73;7.07;;;;;;;;;;10506489;28;20029;-82
2024/04/12 09:07:23;;;;;;;5.88;3.67;;;;;;;;;;10498297;28;20093;-85
2024/04/12 09:32:50;;;;;;;6.95;5.63;;;;;;;;;;10483792;28;20048;-85
2024/04/12 10:49:36;;;;;;;7.22;4.93;;;;;;;;;;10471578;28;20060;-86
2024/04/12 10:55:34;;;;;;;6.47;5.35;;;;;;;;;;10452297;28;20025;-86
2024/04/12 11:01:05;;;;;;;6.40;4.53;;;;;;;;;;10463498;28;20044;-84
2024/04/12 11:34:41;;;;;;;6.53;3.80;;;;;;;;;;10471506;28;20028;-84
2024/04/12 11:40:28;;;;;;;6.53;3.85;;;;;;;;;;10462211;28;20048;-83
2024/04/12 11:46:17;;;;;;;6.20;3.58;;;;;;;;;;10429291;28;20523;-84
2024/04/12 11:51:55;;;;;;;6.90;3.05;;;;;;;;;;10473603;28;20033;-84
2024/04/12 11:56:59;;;;;;;6.88;3.22;;;;;;;;;;10451956;28;20150;-84
2024/04/12 12:02:05;;;;;;;5.28;3.47;;;;;;;;;;10476244;28;20025;-85
2024/04/12 12:07:27;;;;;;;5.57;3.20;;;;;;;;;;10451025;28;20048;-83
2024/04/12 12:13:07;;;;;;;4.50;3.08;;;;;;;;;;10469509;28;20043;-84
2024/04/12 12:24:37;;;;;;;4.28;2.90;;;;;;;;;;10494150;28;20405;-83
2024/04/12 12:29:42;;;;;;;4.75;2.88;;;;;;;;;;10453644;28;20489;-83
2024/04/12 12:34:45;;;;;;;6.28;3.45;;;;;;;;;;10453952;28;20091;-83
2024/04/12 12:39:47;;;;;;;3.50;2.65;;;;;;;;;;10455667;28;20410;-83
2024/04/12 12:44:48;;;;;;;3.58;2.40;;;;;;;;;;10454046;28;20055;-83
2024/04/12 12:49:53;;;;;;;4.65;2.78;;;;;;;;;;10472357;28;20067;-83
2024/04/12 12:55:11;;;;;;;5.35;3.55;;;;;;;;;;10469523;28;20021;-84
2024/04/12 13:00:22;;;;;;;5.18;2.70;;;;;;;;;;10456684;28;20025;-83
2024/04/12 13:05:30;;;;;;;3.53;2.22;;;;;;;;;;10472730;28;20051;-83
2024/04/12 13:10:33;;;;;;;4.95;3.17;;;;;;;;;;10454788;28;20098;-83
2024/04/12 13:15:37;;;;;;;5.13;3.88;;;;;;;;;;10454287;28;20066;-83
2024/04/12 13:20:42;;;;;;;4.82;3.03;;;;;;;;;;10454430;28;20156;-84
2024/04/12 13:25:46;;;;;;;4.82;3.40;;;;;;;;;;10455525;28;20033;-83
2024/04/12 13:30:48;;;;;;;6.45;3.50;;;;;;;;;;10452072;28;20036;-84
2024/04/12 13:36:10;;;;;;;5.55;3.50;;;;;;;;;;10451250;28;20041;-84
2024/04/12 13:53:10;;;;;;;3.53;2.57;;;;;;;;;;10472242;28;20033;-85
2024/04/12 13:58:35;;;;;;;4.90;2.83;;;;;;;;;;10451043;28;20049;-85
2024/04/12 14:26:11;;;;;;;5.17;3.33;;;;;;;;;;10469473;28;20025;-85
2024/04/12 14:48:30;;;;;;;3.88;2.70;;;;;;;;;;10386178;28;20061;-85
2024/04/12 14:53:37;;;;;;;5.88;3.15;;;;;;;;;;10379284;28;20119;-84
2024/04/12 16:14:30;;;;;;;5.10;2.90;;;;;;;;;;10266077;29;20059;-85
2024/04/12 16:19:33;;;;;;;6.28;2.80;;;;;;;;;;10470991;28;20109;-85
2024/04/12 16:24:56;;;;;;;5.47;3.13;;;;;;;;;;10469446;28;20033;-85
2024/04/12 16:30:33;;;;;;;9.00;3.28;;;;;;;;;;10468271;28;20452;-84
2024/04/12 16:35:59;;;;;;;5.00;3.13;;;;;;;;;;10418126;28;20029;-84
2024/04/12 16:41:26;;;;;;;3.83;2.67;;;;;;;;;;10444681;28;20029;-85
2024/04/12 16:46:39;;;;;;;7.03;3.70;;;;;;;;;;10472610;28;20041;-85
2024/04/12 16:51:55;;;;;;;6.97;3.13;;;;;;;;;;10466670;28;20107;-83
2024/04/12 16:57:14;;;;;;;4.53;2.53;;;;;;;;;;10451370;28;20385;-84
2024/04/12 17:02:34;;;;;;;5.60;2.90;;;;;;;;;;10451075;28;20029;-85
2024/04/12 17:07:47;;;;;;;5.50;3.30;;;;;;;;;;10467912;28;20534;-85
2024/04/12 17:12:58;;;;;;;5.63;2.85;;;;;;;;;;10448772;28;20033;-84
2024/04/12 17:18:30;;;;;;;6.40;3.88;;;;;;;;;;10464304;28;20080;-84
2024/04/12 17:23:46;;;;;;;7.30;3.38;;;;;;;;;;10445453;28;20037;-84
2024/04/12 17:34:44;;;;;;;6.10;3.40;;;;;;;;;;10465455;28;20017;-84
2024/04/12 17:40:11;;;;;;;6.40;3.93;;;;;;;;;;10382388;28;20048;-84
2024/04/12 17:51:31;;;;;;;4.85;3.55;;;;;;;;;;10381486;28;20030;-84
2024/04/12 17:56:37;;;;;;;6.05;3.58;;;;;;;;;;10371691;28;20056;-84
2024/04/12 18:02:03;;;;;;;6.45;3.95;;;;;;;;;;10383241;28;20379;-84
2024/04/12 18:07:18;;;;;;;5.57;3.90;;;;;;;;;;10383656;28;20041;-84
2024/04/12 18:12:30;;;;;;;5.82;3.28;;;;;;;;;;10464497;28;20033;-84
2024/04/12 18:17:51;;;;;;;6.10;3.50;;;;;;;;;;10465120;28;20039;-84
2024/04/12 18:23:29;;;;;;;5.20;2.92;;;;;;;;;;10460297;28;20037;-84
2024/04/12 18:28:42;;;;;;;5.20;3.33;;;;;;;;;;10449444;28;20025;-84
2024/04/12 18:33:49;;;;;;;6.90;4.80;;;;;;;;;;10447476;28;20021;-84
